Latest Weather Observations for Normanton

IDQ60801

Issued at 1:02 pm EST Thursday 2 April 2015 (issued every 30 minutes, with the page automatically refreshed every 10 minutes)

About weather observations | Map of weather stations | Latest weather observations for QLD | Other Formats
Station Details ID: 029063 Name: NORMANTON AIRPORT Lat: -17.69 Lon: 141.07 Height: 18.42 m
Data from the previous 72 hours. | See also: Recent months at Normanton
Date/Time
EST
Temp
°C
App
Temp
°C
Dew
Point
Rel
Hum
%
Delta-T
°C
Wind Press
QNH
hPa
Press
MSL
hPa
Rain
since 9 am
mm
Dir
 
Spd
km/h
Gust
km/h
Spd
kts
Gust
kts
02/01:00pm 34.0 37.0 23.4 54 7.4 N 13 20 7 11 1009.6 - 0.0
02/12:30pm 32.0 34.8 23.0 59 6.2 NNE 13 20 7 11 1010.3 - 0.0
02/12:00pm 31.7 35.9 24.8 67 4.9 NE 11 17 6 9 1010.9 1010.8 0.0
02/11:30am 30.7 34.9 24.1 68 4.6 NNE 9 17 5 9 1011.5 - 0.0
02/11:00am 30.3 33.5 23.7 68 4.6 NNE 13 19 7 10 1011.9 - 0.0
02/10:30am 29.7 32.4 24.1 72 3.9 N 17 22 9 12 1012.1 - 0.0
02/10:00am 28.7 29.9 23.8 75 3.4 N 24 30 13 16 1012.2 - 0.0
02/09:30am 30.2 33.4 25.0 73 3.7 N 17 22 9 12 1011.9 - 0.0
02/09:00am 29.1 34.6 26.1 84 2.1 NE 9 13 5 7 1011.7 1011.4 0.0
02/08:30am 28.6 34.1 26.2 87 1.7 NE 9 15 5 8 1011.4 - 0.0
02/08:00am 28.8 35.0 26.6 88 1.6 ENE 7 11 4 6 1011.0 - 0.0
02/07:30am 27.4 33.2 26.0 92 1.0 E 7 11 4 6 1010.4 - 0.0
02/07:00am 26.5 32.1 25.8 96 0.5 ENE 7 11 4 6 1010.2 - 0.0
02/06:30am 26.3 31.6 25.3 94 0.7 E 7 9 4 5 1010.0 - 0.0
02/06:00am 26.5 33.0 25.1 92 1.0 CALM 0 7 0 4 1009.6 1009.3 0.0
02/05:30am 26.6 31.7 25.0 91 1.1 E 7 9 4 5 1009.4 - 0.0
02/05:00am 26.9 32.3 25.5 92 1.0 ESE 7 9 4 5 1009.1 - 0.0
02/04:30am 26.8 31.7 25.2 91 1.1 ESE 9 11 5 6 1009.0 - 0.0
02/04:00am 27.4 33.9 25.6 90 1.3 W 2 6 1 3 1008.6 - 0.0
02/03:30am 27.5 34.0 25.1 87 1.7 CALM 0 0 0 0 1008.5 - 0.0
02/03:00am 27.7 33.0 24.9 85 2.0 NNW 6 7 3 4 1008.4 1008.3 0.0
02/02:30am 27.6 32.6 24.8 85 2.0 NW 7 9 4 5 1008.6 - 0.0
02/02:00am 27.2 31.9 24.3 84 2.0 NW 7 9 4 5 1009.0 - 0.0
02/01:30am 27.8 31.9 24.0 80 2.6 N 9 11 5 6 1009.0 - 0.0
02/01:00am 27.7 32.0 23.7 79 2.8 N 7 9 4 5 1009.2 - 0.0
02/12:30am 27.5 31.7 23.1 77 3.0 ENE 6 9 3 5 1009.6 - 0.0
02/12:00am 27.7 32.4 22.6 74 3.5 W 2 13 1 7 1009.9 1009.5 0.0
 
Date/Time
EST
Temp
°C
App
Temp
°C
Dew
Point
Rel
Hum
%
Delta-T
°C
Wind Press
QNH
hPa
Press
MSL
hPa
Rain
since 9 am
mm
Dir
 
Spd
km/h
Gust
km/h
Spd
kts
Gust
kts
01/11:30pm 27.5 32.4 22.4 73 3.4 CALM 0 6 0 3 1009.8 - 0.0
01/11:00pm 28.1 31.6 22.8 73 3.6 WSW 9 15 5 8 1009.9 - 0.0
01/10:30pm 28.3 33.2 22.3 70 4.1 CALM 0 4 0 2 1009.5 - 0.0
01/10:00pm 29.1 34.0 22.3 66 4.6 CALM 0 7 0 4 1009.8 - 0.0
01/09:30pm 29.4 34.5 22.6 67 4.6 CALM 0 0 0 0 1009.8 - 0.0
01/09:00pm 29.9 33.6 22.3 63 5.2 W 6 9 3 5 1009.6 1009.4 0.0
01/08:30pm 30.0 33.2 22.4 63 5.2 W 9 11 5 6 1009.5 - 0.0
01/08:00pm 30.1 32.8 22.8 65 5.0 W 13 19 7 10 1009.2 - 0.0
01/07:30pm 30.2 32.2 22.9 65 5.0 WSW 17 26 9 14 1009.0 - 0.0
01/07:00pm 31.5 34.1 23.9 64 5.3 W 17 24 9 13 1008.6 - 0.0
01/06:30pm 32.2 34.0 23.2 59 6.2 W 19 26 10 14 1008.6 - 0.0
01/06:00pm 32.9 34.7 23.2 56 6.7 WNW 19 28 10 15 1008.2 1007.9 0.0
01/05:30pm 33.9 35.2 23.3 54 7.4 NW 22 28 12 15 1007.7 - 0.0
01/05:00pm 36.1 37.4 22.3 45 9.5 NNW 19 24 10 13 1007.5 - 0.0
01/04:30pm 37.5 39.0 17.5 30 13.0 SSW 6 15 3 8 1007.3 - 0.0
01/04:00pm 37.6 39.1 18.1 32 12.8 ESE 7 15 4 8 1007.5 - 0.0
01/03:30pm 37.4 39.2 18.4 32 12.5 SSE 6 11 3 6 1007.9 - 0.0
01/03:00pm 36.9 39.8 19.8 36 11.5 NW 4 15 2 8 1008.2 1008.1 0.0
01/02:30pm 36.2 37.3 19.6 37 11.1 N 13 22 7 12 1008.6 - 0.0
01/02:00pm 35.6 36.4 19.1 38 10.9 WSW 13 17 7 9 1009.1 - 0.0
01/01:30pm 35.5 37.4 19.8 39 10.5 NNW 9 17 5 9 1009.6 - 0.0
01/01:00pm 35.2 37.2 19.9 40 10.2 NNE 9 20 5 11 1010.2 - 0.0
01/12:30pm 34.3 37.0 20.6 44 9.2 NNE 7 15 4 8 1010.8 - 0.0
01/12:00pm 34.0 36.2 21.1 47 8.7 NE 11 17 6 9 1011.5 1011.4 0.0
01/11:30am 33.4 35.5 20.9 48 8.4 NNE 11 19 6 10 1012.0 - 0.0
01/11:00am 33.0 35.4 20.9 49 8.1 ENE 9 19 5 10 1012.6 - 0.0
01/10:30am 32.5 34.4 21.4 52 7.5 E 13 22 7 12 1013.1 - 0.0
01/10:00am 31.9 34.2 22.0 55 6.7 ENE 13 19 7 10 1013.3 - 0.0
01/09:30am 31.5 33.7 21.9 56 6.5 ENE 13 20 7 11 1013.3 - 0.0
01/09:00am 30.2 31.9 21.6 60 5.8 NE 15 26 8 14 1013.0 1012.7 0.0
01/08:30am 29.4 31.7 22.1 65 4.9 NE 13 22 7 12 1012.9 - 0.0
01/08:00am 28.1 31.3 23.0 74 3.5 NE 11 19 6 10 1012.8 - 0.0
01/07:30am 27.0 30.8 23.5 81 2.4 NE 9 15 5 8 1012.5 - 0.0
01/07:00am 26.2 30.2 23.7 86 1.7 NE 9 13 5 7 1012.4 - 0.0
01/06:30am 26.4 30.5 23.9 86 1.7 NE 9 13 5 7 1012.1 - 0.0
01/06:00am 26.0 30.5 24.6 92 1.0 NE 9 13 5 7 1011.9 1011.5 0.0
01/05:30am 25.8 30.4 24.8 94 0.7 ENE 9 13 5 7 1011.5 - 0.0
01/05:00am 25.7 29.9 24.7 94 0.7 NE 11 17 6 9 1011.1 - 0.0
01/04:30am 26.1 30.5 25.1 94 0.7 ENE 11 19 6 10 1010.8 - 0.0
01/04:00am 26.2 32.8 25.2 94 0.7 CALM 0 0 0 0 1010.3 - 0.0
01/03:30am 27.0 32.7 25.6 92 1.0 W 6 9 3 5 1009.9 - 0.0
01/03:00am 27.0 31.6 25.4 91 1.1 WSW 11 15 6 8 1009.6 1009.4 0.0
01/02:30am 27.0 31.2 24.8 88 1.5 W 11 13 6 7 1009.9 - 0.0
01/02:00am 27.0 31.8 24.5 86 1.7 W 7 9 4 5 1010.3 - 0.0
01/01:30am 27.2 31.9 24.3 84 2.0 NW 7 9 4 5 1010.6 - 0.0
01/01:00am 27.3 31.8 24.0 82 2.3 NW 7 9 4 5 1010.8 - 0.0
01/12:30am 27.4 31.7 23.6 80 2.6 NW 7 7 4 4 1011.1 - 0.0
01/12:00am 27.9 31.7 23.5 77 3.0 N 9 11 5 6 1011.3 1011.1 0.0
 
Date/Time
EST
Temp
°C
App
Temp
°C
Dew
Point
Rel
Hum
%
Delta-T
°C
Wind Press
QNH
hPa
Press
MSL
hPa
Rain
since 9 am
mm
Dir
 
Spd
km/h
Gust
km/h
Spd
kts
Gust
kts
31/11:30pm 28.0 31.6 23.1 74 3.3 N 9 11 5 6 1011.5 - 0.0
31/11:00pm 27.9 31.6 22.6 73 3.6 W 7 9 4 5 1011.3 - 0.0
31/10:30pm 28.7 31.9 22.4 68 4.3 NW 9 11 5 6 1011.4 - 0.0
31/10:00pm 29.0 32.1 22.2 66 4.6 W 9 13 5 7 1011.5 - 0.0
31/09:30pm 29.4 32.7 21.9 64 5.1 W 7 11 4 6 1011.4 - 0.0
31/09:00pm 29.8 32.6 21.5 61 5.6 W 9 13 5 7 1011.4 1011.2 0.0
31/08:30pm 30.3 32.5 21.1 58 6.2 W 11 15 6 8 1011.1 - 0.0
31/08:00pm 31.0 33.2 21.2 56 6.6 WNW 11 15 6 8 1010.8 - 0.0
31/07:30pm 31.9 33.4 20.5 51 7.6 NW 13 17 7 9 1010.4 - 0.0
31/07:00pm 33.2 33.2 19.7 45 8.9 NW 19 24 10 13 1010.0 - 0.0
31/06:30pm 35.4 36.0 16.7 33 11.9 S 9 13 5 7 1009.5 - 0.0
31/06:00pm 36.8 35.9 15.8 28 13.3 S 15 19 8 10 1009.2 1008.9 0.0
31/05:30pm 37.5 37.2 16.4 28 13.5 S 13 20 7 11 1009.0 - 0.0
31/05:00pm 37.2 36.4 16.2 29 13.4 S 15 26 8 14 1008.9 - 0.0
31/04:30pm 37.4 35.4 16.4 29 13.4 S 22 26 12 14 1009.1 - 0.0
31/04:00pm 37.3 36.0 16.8 29 13.2 S 19 30 10 16 1009.2 - 0.0
31/03:30pm 37.4 37.7 16.9 30 13.2 ESE 11 22 6 12 1009.5 - 0.0
31/03:00pm 37.3 37.9 17.8 31 12.7 S 11 17 6 9 1009.8 1009.7 0.0
31/02:30pm 35.7 35.6 16.9 32 12.1 SSE 13 20 7 11 1010.3 - 0.0
31/02:00pm 35.9 36.8 17.6 34 11.9 SSE 9 17 5 9 1010.8 - 0.0
31/01:30pm 35.6 35.6 17.3 33 11.8 ESE 13 22 7 12 1011.4 - 0.0
31/01:00pm 35.2 36.0 17.4 34 11.5 S 9 20 5 11 1012.1 - 0.0
31/12:30pm 34.5 34.5 17.3 36 11.0 ESE 13 22 7 12 1012.7 - 0.0
31/12:00pm 33.9 35.2 18.4 40 10.1 ESE 9 20 5 11 1013.3 1013.2 0.0
31/11:30am 33.7 34.7 18.6 40 9.9 E 11 20 6 11 1014.0 - 0.0
31/11:00am 32.5 33.5 18.7 44 9.0 NE 11 19 6 10 1014.6 - 0.0
31/10:30am 32.3 34.1 19.5 46 8.4 ENE 9 17 5 9 1014.9 - 0.0
31/10:00am 31.8 33.3 19.8 49 7.9 ENE 11 19 6 10 1015.1 - 0.0
31/09:30am 30.6 31.7 19.6 51 7.2 NE 13 20 7 11 1015.2 - 0.0
31/09:00am 29.8 31.5 20.1 56 6.4 NE 11 24 6 13 1015.1 1014.9 0.0
31/08:30am 29.0 31.8 21.5 64 5.0 NE 9 15 5 8 1015.1 - 0.0
31/08:00am 28.0 31.0 22.0 70 4.0 NNE 9 13 5 7 1015.0 - 0.0
31/07:30am 26.6 29.8 22.4 78 2.8 NNE 9 13 5 7 1014.5 - 0.0
31/07:00am 25.6 29.6 23.1 86 1.7 NE 7 9 4 5 1014.2 - 0.0
31/06:30am 25.8 29.7 22.9 84 2.0 NE 7 11 4 6 1013.8 - 0.0
31/06:00am 26.1 30.4 23.6 86 1.7 NE 7 11 4 6 1013.5 1013.3 0.0
31/05:30am 26.0 30.5 24.0 89 1.4 NE 7 11 4 6 1013.1 - 0.0
31/05:00am 26.2 31.0 24.4 90 1.2 NE 7 11 4 6 1012.7 - 0.0
31/04:30am 26.0 30.9 24.6 92 1.0 NE 7 11 4 6 1012.4 - 0.0
31/04:00am 25.9 30.5 24.7 93 0.8 NE 9 13 5 7 1012.4 - 0.0
31/03:30am 26.1 30.8 24.9 93 0.8 ENE 9 13 5 7 1012.3 - 0.0
31/03:00am 26.1 31.0 25.2 95 0.6 E 9 13 5 7 1012.0 1011.8 0.0
31/02:30am 26.2 31.6 25.2 94 0.7 E 6 9 3 5 1012.0 - 0.0
31/02:00am 26.9 33.3 25.5 92 1.0 W 2 7 1 4 1011.9 - 0.0
31/01:30am 27.2 32.6 25.2 89 1.4 W 6 9 3 5 1012.1 - 0.0
31/01:00am 27.6 32.6 24.8 85 2.0 W 7 9 4 5 1012.4 - 0.0
31/12:30am 27.9 32.8 24.7 83 2.2 WNW 7 9 4 5 1012.8 - 0.0
31/12:00am 28.1 32.9 24.5 81 2.5 NW 7 7 4 4 1013.1 1012.9 0.0
 
Date/Time
EST
Temp
°C
App
Temp
°C
Dew
Point
Rel
Hum
%
Delta-T
°C
Wind Press
QNH
hPa
Press
MSL
hPa
Rain
since 9 am
mm
Dir
 
Spd
km/h
Gust
km/h
Spd
kts
Gust
kts
30/11:30pm 28.2 32.7 24.0 78 2.9 NW 7 9 4 5 1013.1 - 0.0
30/11:00pm 28.3 32.6 23.7 76 3.2 NNW 7 9 4 5 1013.3 - 0.0
30/10:30pm 28.7 32.3 23.1 71 3.8 NNW 9 11 5 6 1013.4 - 0.0
30/10:00pm 29.1 32.4 22.6 68 4.4 N 9 11 5 6 1013.5 - 0.0
30/09:30pm 29.6 32.7 22.1 64 5.1 N 9 11 5 6 1013.5 - 0.0
30/09:00pm 30.1 32.7 21.2 59 6.0 NW 9 13 5 7 1013.2 1013.0 0.0
30/08:30pm 30.3 32.6 21.4 59 6.0 WNW 11 13 6 7 1012.8 - 0.0
30/08:00pm 30.8 32.8 21.6 58 6.2 WNW 13 17 7 9 1012.5 - 0.0
30/07:30pm 31.6 34.2 21.2 54 7.0 NNW 9 17 5 9 1012.1 - 0.0
30/07:00pm 32.9 34.0 16.7 38 10.3 ESE 6 7 3 4 1011.7 - 0.0
30/06:30pm 34.5 35.7 16.8 34 11.3 SE 6 9 3 5 1011.5 - 0.0
30/06:00pm 35.5 35.9 16.3 32 12.2 SE 9 11 5 6 1011.2 1010.9 0.0
30/05:30pm 36.2 36.3 16.4 31 12.6 ESE 11 15 6 8 1011.1 - 0.0
30/05:00pm 36.7 36.5 15.8 29 13.2 E 11 20 6 11 1010.9 - 0.0
30/04:30pm 37.1 36.9 16.6 29 13.1 E 13 22 7 12 1010.9 - 0.0
30/04:00pm 36.9 36.2 16.5 30 13.1 E 15 24 8 13 1010.9 - 0.0
30/03:30pm 37.0 37.0 17.1 31 12.8 ESE 13 20 7 11 1011.1 - 0.0
30/03:00pm 36.7 36.7 17.3 31 12.6 E 13 17 7 9 1011.4 1011.2 0.0
30/02:30pm 36.7 36.7 17.3 31 12.5 ESE 13 22 7 12 1011.7 - 0.0
30/02:00pm 36.4 36.5 17.5 32 12.2 ESE 13 24 7 13 1012.0 - 0.0
30/01:30pm 35.6 34.9 17.3 33 11.8 ESE 17 22 9 12 1012.6 - 0.0

Other Formats:

Comma delimited format used in spreadsheet applications
http://www.bom.gov.au/fwo/IDQ60801/IDQ60801.94266.axf

JavaScript Object Notation format (JSON) in row-major order
http://www.bom.gov.au/fwo/IDQ60801/IDQ60801.94266.json